Time;durP1;ratioP1;P1;durP2;ratioP2;P2;SDS_P1;SDS_P2;PMS_P1;PMS_P2;Temp;Humidity;BMP_temperature;BMP_pressure;BME280_temperature;BME280_humidity;BME280_pressure;Samples;Min_cycle;Max_cycle;Signal;HPM_P1;HPM_P2
2023/09/02 00:00:08;;;;;;;492.17;446.95;;;;;;;26.31;47.04;99802.63;333464;29;1347;-75
2023/09/02 00:00:19;;;;;;;499.23;453.85;;;;;;;26.31;46.97;99802.63;332907;29;1300;-75
2023/09/02 00:00:29;;;;;;;496.60;451.33;;;;;;;26.29;47.47;99793.00;331155;29;1976;-75
2023/09/02 00:00:39;;;;;;;490.33;445.33;;;;;;;26.30;47.18;99800.91;330648;29;947;-75
2023/09/02 00:00:50;;;;;;;488.10;443.20;;;;;;;26.30;47.08;99806.25;320693;30;1363;-75
2023/09/02 00:01:00;;;;;;;495.50;450.27;;;;;;;26.32;47.20;99798.94;324598;30;2482;-75
2023/09/02 00:01:11;;;;;;;502.50;456.98;;;;;;;26.33;47.56;99800.63;326493;29;2629;-75
2023/09/02 00:01:21;;;;;;;500.83;455.23;;;;;;;26.32;47.42;99798.09;326722;30;911;-75
2023/09/02 00:01:31;;;;;;;503.83;458.33;;;;;;;26.33;47.16;99795.25;328290;29;2687;-75
2023/09/02 00:01:42;;;;;;;503.98;458.58;;;;;;;26.34;47.44;99801.47;328029;29;2791;-75
2023/09/02 00:01:52;;;;;;;499.00;453.90;;;;;;;26.35;47.27;99798.63;326671;30;1348;-75
2023/09/02 00:02:03;;;;;;;487.85;442.98;;;;;;;26.33;47.13;99799.78;326538;30;1839;-75
2023/09/02 00:02:13;;;;;;;487.97;443.17;;;;;;;26.33;47.32;99799.78;324924;30;1260;-75
2023/09/02 00:02:23;;;;;;;487.63;442.77;;;;;;;26.31;47.16;99799.09;321858;30;1069;-75
2023/09/02 00:02:34;;;;;;;488.52;443.65;;;;;;;26.32;47.12;99800.78;321264;30;1994;-75
2023/09/02 00:02:44;;;;;;;484.90;439.90;;;;;;;26.33;46.98;99803.31;320821;30;2771;-75
2023/09/02 00:02:55;;;;;;;486.27;441.25;;;;;;;26.32;47.05;99798.09;318473;31;953;-75
2023/09/02 00:03:05;;;;;;;482.23;437.27;;;;;;;26.33;47.23;99797.09;318196;31;1299;-75
2023/09/02 00:03:15;;;;;;;486.38;441.42;;;;;;;26.32;47.00;99801.63;316841;31;3764;-75
2023/09/02 00:03:26;;;;;;;491.57;446.57;;;;;;;26.33;46.94;99797.09;314846;30;3125;-75
2023/09/02 00:03:38;;;;;;;489.10;444.10;;;;;;;26.33;47.09;99795.25;315007;31;1205;-75
2023/09/02 00:03:48;;;;;;;484.38;439.23;;;;;;;26.34;47.15;99806.81;316161;31;3516;-75
2023/09/02 00:04:00;;;;;;;481.08;435.92;;;;;;;26.35;46.98;99800.47;315865;31;3321;-74
2023/09/02 00:04:11;;;;;;;486.92;441.75;;;;;;;26.36;47.30;99799.47;313315;31;2409;-74
2023/09/02 00:04:21;;;;;;;487.00;441.93;;;;;;;26.37;47.37;99806.50;313799;31;1387;-74
2023/09/02 00:04:31;;;;;;;490.35;445.23;;;;;;;26.37;47.10;99801.13;314171;31;2246;-74
2023/09/02 00:04:42;;;;;;;488.87;443.57;;;;;;;26.38;47.07;99797.47;312855;31;2937;-74
2023/09/02 00:04:52;;;;;;;488.70;443.42;;;;;;;26.37;47.12;99803.81;316179;31;1103;-74
2023/09/02 00:05:03;;;;;;;484.27;439.07;;;;;;;26.37;46.75;99803.81;314749;31;3830;-74
2023/09/02 00:05:13;;;;;;;483.33;438.40;;;;;;;26.37;46.89;99796.63;312696;31;5403;-74
2023/09/02 00:05:24;;;;;;;488.27;443.15;;;;;;;26.36;47.10;99800.31;312662;31;1692;-74
2023/09/02 00:05:34;;;;;;;491.00;445.83;;;;;;;26.36;46.85;99788.72;312384;31;5283;-74
2023/09/02 00:05:44;;;;;;;499.95;454.52;;;;;;;26.35;46.85;99803.16;309894;31;4297;-74
2023/09/02 00:05:55;;;;;;;502.83;457.47;;;;;;;26.35;46.84;99803.16;312731;31;942;-74
2023/09/02 00:06:05;;;;;;;503.35;457.90;;;;;;;26.35;47.27;99803.16;308155;31;1284;-74
2023/09/02 00:06:15;;;;;;;505.70;460.20;;;;;;;26.35;47.27;99808.50;307711;31;4635;-74
2023/09/02 00:06:26;;;;;;;501.03;455.40;;;;;;;26.34;47.14;99796.09;306474;31;3327;-74
2023/09/02 00:06:36;;;;;;;500.85;455.35;;;;;;;26.33;47.09;99805.13;306322;32;920;-74
2023/09/02 00:06:47;;;;;;;493.30;447.97;;;;;;;26.33;47.04;99803.31;306658;32;3336;-74
2023/09/02 00:06:57;;;;;;;486.23;441.17;;;;;;;26.33;47.27;99805.13;306309;32;4385;-74
2023/09/02 00:07:08;;;;;;;487.37;442.30;;;;;;;26.33;47.13;99805.13;306223;32;797;-74
2023/09/02 00:07:18;;;;;;;483.60;438.55;;;;;;;26.34;46.90;99801.47;301738;32;4956;-74
2023/09/02 00:07:29;;;;;;;485.67;440.57;;;;;;;26.34;47.01;99796.94;298151;32;7579;-74
2023/09/02 00:07:39;;;;;;;483.70;438.58;;;;;;;26.34;47.34;99799.63;296926;33;963;-74
2023/09/02 00:07:49;;;;;;;487.13;442.10;;;;;;;26.34;47.44;99802.31;298578;32;7561;-74
2023/09/02 00:08:00;;;;;;;490.93;445.80;;;;;;;26.35;47.85;99803.16;295761;33;5749;-74
2023/09/02 00:08:10;;;;;;;493.00;447.90;;;;;;;26.34;47.39;99802.31;293979;33;6402;-74
2023/09/02 00:08:20;;;;;;;490.70;445.53;;;;;;;26.34;47.27;99812.19;295836;33;883;-74
2023/09/02 00:08:31;;;;;;;496.38;450.98;;;;;;;26.33;47.52;99805.13;293452;33;6575;-74
2023/09/02 00:08:41;;;;;;;502.47;456.87;;;;;;;26.33;47.69;99805.13;294005;33;5099;-74
2023/09/02 00:08:52;;;;;;;502.07;456.67;;;;;;;26.33;47.65;99810.50;295022;33;1297;-74
2023/09/02 00:09:02;;;;;;;495.02;449.95;;;;;;;26.33;47.51;99799.78;288872;33;5198;-74
2023/09/02 00:09:13;;;;;;;489.67;444.80;;;;;;;26.33;47.40;99799.78;287451;33;5905;-74
2023/09/02 00:09:23;;;;;;;489.67;444.65;;;;;;;26.34;47.64;99804.13;292063;33;1361;-74
2023/09/02 00:09:34;;;;;;;488.02;442.90;;;;;;;26.34;47.22;99806.81;291341;33;7058;-74
2023/09/02 00:09:44;;;;;;;491.73;446.47;;;;;;;26.35;47.18;99803.16;291720;33;10181;-74
2023/09/02 00:09:54;;;;;;;491.90;446.60;;;;;;;26.34;47.04;99798.78;290934;34;816;-74
2023/09/02 00:10:05;;;;;;;497.80;452.48;;;;;;;26.34;47.25;99809.50;287627;34;1281;-76
2023/09/02 00:10:16;;;;;;;495.87;450.63;;;;;;;26.32;47.51;99801.63;287217;34;8409;-75
2023/09/02 00:10:26;;;;;;;499.20;453.98;;;;;;;26.31;47.00;99805.31;286407;34;7731;-75
2023/09/02 00:10:36;;;;;;;500.43;455.13;;;;;;;26.32;47.04;99803.47;288136;34;1228;-75
2023/09/02 00:10:47;;;;;;;496.10;450.90;;;;;;;26.32;47.11;99803.47;286769;34;8199;-75
2023/09/02 00:10:57;;;;;;;494.23;449.03;;;;;;;26.33;47.13;99805.13;284332;34;6293;-75
2023/09/02 00:11:08;;;;;;;481.30;436.50;;;;;;;26.31;47.13;99807.97;285496;34;888;-75
2023/09/02 00:11:18;;;;;;;485.23;440.33;;;;;;;26.29;47.05;99803.75;284748;34;7219;-74
2023/09/02 00:11:28;;;;;;;486.20;441.27;;;;;;;26.28;47.04;99808.25;282689;34;8005;-74
2023/09/02 00:11:39;;;;;;;491.25;446.13;;;;;;;26.29;46.87;99809.94;278981;35;866;-74
2023/09/02 00:11:49;;;;;;;488.23;443.00;;;;;;;26.30;46.97;99808.09;277439;35;8550;-74
2023/09/02 00:13:32;;;;;;;453.84;408.73;;;;;;;26.30;47.00;99805.44;2501031;27;20268;-74
2023/09/02 00:13:43;;;;;;;481.40;436.60;;;;;;;26.32;47.11;99808.81;354189;27;1349;-74
2023/09/02 00:13:53;;;;;;;488.97;443.97;;;;;;;26.30;46.79;99808.94;354572;27;1009;-74
2023/09/02 00:14:04;;;;;;;491.25;446.13;;;;;;;26.31;46.78;99805.31;352704;28;1210;-74
2023/09/02 00:14:14;;;;;;;493.27;448.23;;;;;;;26.30;46.94;99808.94;349955;28;1231;-74
2023/09/02 00:14:24;;;;;;;489.45;444.55;;;;;;;26.30;46.80;99800.91;350092;28;856;-74
2023/09/02 00:14:35;;;;;;;482.10;437.43;;;;;;;26.29;47.24;99809.94;347265;28;1250;-74
2023/09/02 00:14:45;;;;;;;482.60;437.85;;;;;;;26.30;46.97;99810.78;347329;28;1083;-74
2023/09/02 00:14:56;;;;;;;478.33;433.63;;;;;;;26.31;47.02;99802.63;349901;28;1145;-74
2023/09/02 00:15:06;;;;;;;483.40;438.50;;;;;;;26.32;46.78;99800.78;348699;28;1221;-74
2023/09/02 00:15:17;;;;;;;479.63;434.90;;;;;;;26.33;46.78;99807.81;350066;28;824;-74
2023/09/02 00:15:27;;;;;;;484.58;439.58;;;;;;;26.33;46.86;99805.13;349967;28;1264;-74
2023/09/02 00:15:38;;;;;;;485.93;441.00;;;;;;;26.33;46.43;99813.19;351527;28;943;-74
2023/09/02 00:15:48;;;;;;;491.03;445.90;;;;;;;26.32;46.34;99811.50;352865;28;1224;-74
2023/09/02 00:15:58;;;;;;;491.10;446.17;;;;;;;26.31;46.46;99807.97;352635;28;875;-74
2023/09/02 00:16:09;;;;;;;493.50;448.33;;;;;;;26.29;46.62;99804.59;351357;28;1421;-75
2023/09/02 00:16:20;;;;;;;494.70;449.48;;;;;;;26.29;46.81;99814.47;351438;28;1043;-74
2023/09/02 00:16:30;;;;;;;492.17;446.77;;;;;;;26.29;46.60;99803.75;351860;28;962;-73
2023/09/02 00:16:40;;;;;;;485.30;440.23;;;;;;;26.29;46.21;99809.94;351623;28;1153;-73
2023/09/02 00:16:51;;;;;;;488.43;443.33;;;;;;;26.28;46.73;99807.44;351590;28;761;-73
2023/09/02 00:17:01;;;;;;;493.60;448.40;;;;;;;26.27;46.30;99814.63;349953;28;1050;-73
2023/09/02 00:17:12;;;;;;;501.30;455.90;;;;;;;26.27;46.48;99809.25;348557;28;1423;-73
2023/09/02 00:17:22;;;;;;;494.20;449.08;;;;;;;26.28;46.74;99812.78;348367;28;1207;-74
2023/09/02 00:17:33;;;;;;;495.27;450.07;;;;;;;26.27;46.33;99806.59;348604;28;1190;-74
2023/09/02 00:17:44;;;;;;;483.58;438.75;;;;;;;26.28;46.52;99802.91;347262;28;1252;-74
2023/09/02 00:17:54;;;;;;;484.13;439.25;;;;;;;26.27;46.48;99808.44;348935;28;1231;-74
2023/09/02 00:18:05;;;;;;;482.20;437.40;;;;;;;26.26;46.33;99804.06;351220;28;1451;-74
2023/09/02 00:18:15;;;;;;;482.40;437.50;;;;;;;26.27;46.78;99801.22;349982;28;1329;-74
2023/09/02 00:18:25;;;;;;;485.80;440.80;;;;;;;26.29;46.71;99803.75;348625;28;772;-74
2023/09/02 00:18:36;;;;;;;485.50;440.43;;;;;;;26.30;46.59;99808.09;348501;28;1190;-74
2023/09/02 00:18:46;;;;;;;483.15;438.08;;;;;;;26.30;46.36;99808.94;350239;28;812;-74
2023/09/02 00:18:56;;;;;;;479.43;434.40;;;;;;;26.32;46.41;99803.47;350105;28;903;-74
2023/09/02 00:19:07;;;;;;;487.75;442.55;;;;;;;26.32;46.43;99809.66;348533;28;1380;-74
2023/09/02 00:19:17;;;;;;;489.70;444.47;;;;;;;26.33;46.59;99813.19;343343;28;843;-74
2023/09/02 00:19:28;;;;;;;497.17;451.77;;;;;;;26.34;46.33;99812.19;343004;28;1279;-74
2023/09/02 00:19:38;;;;;;;494.67;449.45;;;;;;;26.33;46.48;99810.50;342177;28;1308;-74
2023/09/02 00:19:49;;;;;;;499.87;454.50;;;;;;;26.33;46.08;99802.47;343332;28;1078;-74
2023/09/02 00:19:59;;;;;;;498.27;452.92;;;;;;;26.34;46.29;99806.81;344340;28;1275;-74
2023/09/02 00:20:10;;;;;;;497.13;451.87;;;;;;;26.35;46.34;99808.50;343115;28;1125;-74
2023/09/02 00:20:21;;;;;;;494.52;449.30;;;;;;;26.29;46.37;99809.09;341796;28;1009;-74
2023/09/02 00:20:31;;;;;;;487.85;442.92;;;;;;;26.25;46.63;99805.06;342964;28;985;-74
2023/09/02 00:20:41;;;;;;;490.07;444.90;;;;;;;26.25;46.56;99802.38;344492;28;1208;-74
2023/09/02 00:20:52;;;;;;;489.17;443.95;;;;;;;26.24;46.57;99806.91;344485;28;1322;-74
2023/09/02 00:21:03;;;;;;;490.47;445.13;;;;;;;26.26;46.22;99806.75;344623;28;812;-74
2023/09/02 00:21:13;;;;;;;485.75;440.75;;;;;;;26.27;46.65;99805.75;340360;29;1439;-74
2023/09/02 00:21:24;;;;;;;476.67;432.00;;;;;;;26.29;46.25;99806.44;339421;28;1304;-74
2023/09/02 00:21:35;;;;;;;479.15;434.40;;;;;;;26.30;46.42;99805.44;339344;29;1319;-74
2023/09/02 00:21:45;;;;;;;482.00;437.10;;;;;;;26.30;46.47;99803.59;341268;28;1473;-74
2023/09/02 00:21:55;;;;;;;485.00;440.03;;;;;;;26.30;46.11;99800.91;341900;28;1342;-74
2023/09/02 00:22:06;;;;;;;486.02;441.02;;;;;;;26.31;46.51;99810.66;343062;28;844;-74
2023/09/02 00:22:16;;;;;;;487.43;442.23;;;;;;;26.31;46.37;99805.31;342966;28;1572;-74
2023/09/02 00:22:30;;;;;;;489.83;444.42;;;;;;;26.32;46.76;99806.13;340428;29;1396;-74
2023/09/02 00:22:41;;;;;;;492.30;446.85;;;;;;;26.31;46.44;99807.13;340534;29;1128;-74
2023/09/02 00:22:52;;;;;;;490.23;445.17;;;;;;;26.31;46.35;99805.31;340580;29;875;-74
2023/09/02 00:23:02;;;;;;;491.10;446.10;;;;;;;26.32;46.51;99806.13;339161;29;1235;-74
2023/09/02 00:23:13;;;;;;;482.83;438.10;;;;;;;26.33;46.63;99799.78;335520;29;956;-74
2023/09/02 00:23:23;;;;;;;486.30;441.47;;;;;;;26.33;46.63;99813.19;333088;29;1774;-74
2023/09/02 00:23:33;;;;;;;499.00;453.73;;;;;;;26.34;46.56;99812.19;336725;29;1601;-74
2023/09/02 00:23:45;;;;;;;498.75;453.45;;;;;;;26.33;46.69;99805.13;338133;29;1713;-74
2023/09/02 00:24:05;;;;;;;497.65;452.30;;;;;;;26.34;46.46;99802.31;337314;29;2100;-74
2023/09/02 00:24:15;;;;;;;492.10;446.90;;;;;;;26.34;47.04;99806.81;339979;29;2072;-74
2023/09/02 00:24:26;;;;;;;492.07;446.93;;;;;;;26.35;46.44;99803.97;335692;29;2327;-74
2023/09/02 00:24:36;;;;;;;492.33;447.17;;;;;;;26.34;46.99;99807.66;334102;29;1301;-74
2023/09/02 00:24:46;;;;;;;487.70;442.67;;;;;;;26.33;47.09;99815.88;334009;29;1407;-74
2023/09/02 00:24:57;;;;;;;485.87;440.90;;;;;;;26.32;46.93;99816.88;332173;29;910;-74
2023/09/02 00:25:07;;;;;;;487.97;442.80;;;;;;;26.32;46.88;99819.56;331177;29;1055;-74
2023/09/02 00:25:18;;;;;;;491.47;446.13;;;;;;;26.31;47.14;99809.81;334154;29;976;-74
2023/09/02 00:25:28;;;;;;;495.37;449.97;;;;;;;26.31;47.03;99813.34;331762;29;1811;-74
2023/09/02 00:25:38;;;;;;;488.85;443.65;;;;;;;26.31;47.14;99813.34;329366;29;2349;-74
2023/09/02 00:25:49;;;;;;;478.73;433.90;;;;;;;26.31;47.50;99812.50;326595;30;1189;-73
2023/09/02 00:25:59;;;;;;;478.73;433.90;;;;;;;26.28;47.41;99810.09;326052;30;2230;-73
2023/09/02 00:26:10;;;;;;;482.67;437.77;;;;;;;26.28;47.54;99807.44;326091;30;2512;-74
2023/09/02 00:26:20;;;;;;;484.67;439.77;;;;;;;26.28;47.21;99818.16;321790;30;1239;-74
2023/09/02 00:26:31;;;;;;;483.90;438.90;;;;;;;26.28;47.14;99813.63;322571;30;2793;-74
2023/09/02 00:26:41;;;;;;;486.20;441.07;;;;;;;26.29;47.57;99814.47;323754;30;2584;-74
2023/09/02 00:26:51;;;;;;;486.77;441.60;;;;;;;26.29;47.45;99814.47;325596;30;857;-74
2023/09/02 00:27:02;;;;;;;488.27;443.17;;;;;;;26.28;47.40;99819.00;324250;30;1370;-74
2023/09/02 00:27:12;;;;;;;483.27;438.42;;;;;;;26.25;47.47;99813.09;323262;30;1183;-74
2023/09/02 00:27:22;;;;;;;483.60;438.87;;;;;;;26.23;47.32;99815.09;322213;30;1735;-74
2023/09/02 00:27:33;;;;;;;482.37;437.67;;;;;;;26.22;47.69;99816.94;319625;30;877;-74
2023/09/02 00:27:43;;;;;;;479.55;434.83;;;;;;;26.22;47.60;99813.41;319876;30;2690;-74
2023/09/02 00:27:54;;;;;;;483.53;438.50;;;;;;;26.19;47.63;99810.06;320977;30;3141;-74
2023/09/02 00:28:04;;;;;;;480.88;435.95;;;;;;;26.20;47.63;99805.53;321818;30;928;-74
2023/09/02 00:28:14;;;;;;;479.83;434.93;;;;;;;26.13;47.89;99813.38;318334;30;3093;-74
2023/09/02 00:28:25;;;;;;;476.33;431.57;;;;;;;26.11;47.87;99812.69;313923;31;3256;-74
2023/09/02 00:28:35;;;;;;;490.52;445.35;;;;;;;26.06;47.96;99809.63;314912;31;1387;-74
2023/09/02 00:28:46;;;;;;;494.17;448.87;;;;;;;26.01;48.11;99811.09;312237;31;3684;-74
2023/09/02 00:28:56;;;;;;;486.02;441.00;;;;;;;26.00;48.40;99804.88;314160;31;3366;-74
2023/09/02 00:29:07;;;;;;;470.73;426.03;;;;;;;25.89;48.19;99810.53;315735;31;1203;-74
2023/09/02 00:29:17;;;;;;;467.77;423.10;;;;;;;25.86;48.38;99810.84;310497;31;891;-75
2023/09/02 00:29:27;;;;;;;475.93;430.77;;;;;;;25.88;48.60;99811.50;312334;31;2255;-74
2023/09/02 00:29:38;;;;;;;479.33;434.07;;;;;;;25.88;48.36;99814.19;311297;31;2929;-74
2023/09/02 00:29:48;;;;;;;476.60;431.20;;;;;;;25.88;48.59;99806.16;312798;31;890;-74
2023/09/02 00:29:59;;;;;;;472.07;426.80;;;;;;;25.81;48.75;99810.44;311278;31;3615;-74
2023/09/02 00:30:09;;;;;;;475.23;429.73;;;;;;;25.80;48.55;99814.13;310826;31;4663;-74
2023/09/02 00:30:20;;;;;;;477.07;431.73;;;;;;;25.75;48.84;99811.06;310539;31;894;-74
2023/09/02 00:30:31;;;;;;;477.60;432.25;;;;;;;25.68;49.22;99801.94;308395;31;4237;-74
2023/09/02 00:30:41;;;;;;;480.37;435.13;;;;;;;25.67;49.04;99802.94;311095;31;4257;-74
2023/09/02 00:30:53;;;;;;;481.93;436.73;;;;;;;25.70;48.78;99808.84;312780;31;867;-74
2023/09/02 00:31:03;;;;;;;478.67;433.60;;;;;;;25.74;48.88;99810.22;311455;31;1241;-74
2023/09/02 00:31:13;;;;;;;475.30;430.10;;;;;;;25.78;48.70;99810.75;312731;31;5050;-74
2023/09/02 00:31:24;;;;;;;475.92;430.73;;;;;;;25.80;48.58;99812.28;310781;31;3218;-74
2023/09/02 00:31:34;;;;;;;471.77;426.83;;;;;;;25.82;49.14;99812.13;309529;31;923;-74
2023/09/02 00:31:45;;;;;;;469.13;424.33;;;;;;;25.84;48.54;99808.31;308740;31;3129;-74
2023/09/02 00:31:55;;;;;;;468.23;423.23;;;;;;;25.84;48.66;99805.63;305028;32;4251;-74
2023/09/02 00:32:05;;;;;;;474.53;429.17;;;;;;;25.83;48.72;99808.47;304104;32;872;-74
2023/09/02 00:32:16;;;;;;;473.75;428.45;;;;;;;25.79;48.90;99810.59;308189;31;5222;-73
2023/09/02 00:32:28;;;;;;;474.23;429.10;;;;;;;25.80;48.93;99814.13;305966;32;6540;-74
2023/09/02 00:32:39;;;;;;;464.83;420.02;;;;;;;25.80;49.03;99808.75;303755;32;6375;-74
2023/09/02 00:32:49;;;;;;;467.87;422.83;;;;;;;25.77;49.05;99809.06;300858;32;1214;-74
2023/09/02 00:33:00;;;;;;;470.40;425.23;;;;;;;25.75;48.88;99806.53;299075;32;6337;-74
2023/09/02 00:33:10;;;;;;;476.87;431.40;;;;;;;25.73;49.26;99802.34;299407;32;6191;-74
2023/09/02 00:33:21;;;;;;;485.45;439.65;;;;;;;25.73;48.97;99807.69;299846;32;1249;-74
2023/09/02 00:33:31;;;;;;;484.00;438.40;;;;;;;25.70;49.33;99805.31;296823;32;6392;-74
2023/09/02 00:33:42;;;;;;;474.73;429.48;;;;;;;25.70;49.29;99810.69;294352;33;4615;-74
2023/09/02 00:33:52;;;;;;;476.73;431.43;;;;;;;25.72;49.23;99806.00;295070;33;4591;-74
2023/09/02 00:34:03;;;;;;;478.40;433.05;;;;;;;25.73;49.50;99811.22;295737;33;1368;-74
2023/09/02 00:34:13;;;;;;;484.40;438.83;;;;;;;25.74;49.21;99810.22;294219;33;6052;-74
2023/09/02 00:34:23;;;;;;;475.63;430.35;;;;;;;25.77;49.20;99809.06;295060;33;7159;-74
2023/09/02 00:34:34;;;;;;;480.40;435.03;;;;;;;25.79;49.55;99807.09;295880;33;900;-74
2023/09/02 00:34:47;;;;;;;488.03;442.47;;;;;;;25.78;49.22;99805.41;293854;33;8932;-74
2023/09/02 00:34:58;;;;;;;486.15;440.67;;;;;;;25.78;49.14;99806.25;291492;33;8440;-74
2023/09/02 00:35:09;;;;;;;474.40;429.37;;;;;;;25.78;49.25;99811.59;290770;33;8559;-74
2023/09/02 00:35:19;;;;;;;467.52;422.60;;;;;;;25.80;49.09;99806.09;289931;34;1279;-74
2023/09/02 00:35:30;;;;;;;476.77;431.63;;;;;;;25.80;49.30;99808.75;290670;33;8834;-74
2023/09/02 00:35:40;;;;;;;474.07;428.97;;;;;;;25.80;49.13;99806.09;290260;33;8752;-74
2023/09/02 00:35:50;;;;;;;468.83;423.95;;;;;;;25.80;49.39;99806.09;291506;33;1489;-74
2023/09/02 00:36:01;;;;;;;470.63;425.77;;;;;;;25.82;48.94;99812.13;288571;33;6425;-74
2023/09/02 00:36:11;;;;;;;475.63;430.73;;;;;;;25.82;49.09;99807.63;287942;34;6949;-74
2023/09/02 00:36:22;;;;;;;488.57;443.20;;;;;;;25.82;49.11;99807.63;287822;34;8588;-74
2023/09/02 00:36:32;;;;;;;492.05;446.50;;;;;;;25.81;49.10;99810.44;288128;34;906;-74
2023/09/02 00:36:43;;;;;;;492.50;446.80;;;;;;;25.75;49.41;99805.69;286544;34;9292;-74
2023/09/02 00:38:29;;;;;;;365.98;327.41;;;;;;;25.67;49.64;99806.47;2501193;27;20657;-74
2023/09/02 00:38:40;;;;;;;471.53;426.60;;;;;;;25.61;49.61;99815.09;355716;27;870;-74
2023/09/02 00:38:50;;;;;;;466.70;421.80;;;;;;;25.60;49.88;99817.94;354331;27;904;-74
2023/09/02 00:39:01;;;;;;;462.80;417.80;;;;;;;25.61;49.68;99808.88;352792;28;1234;-74
2023/09/02 00:39:11;;;;;;;464.17;419.23;;;;;;;25.63;49.75;99810.41;351457;28;1115;-74
2023/09/02 00:39:22;;;;;;;469.40;424.50;;;;;;;25.63;49.67;99813.09;350125;28;796;-74
2023/09/02 00:39:32;;;;;;;467.50;422.70;;;;;;;25.65;50.06;99804.94;348697;28;1114;-74
2023/09/02 00:39:43;;;;;;;463.50;418.90;;;;;;;25.63;49.75;99806.91;350098;28;857;-74
2023/09/02 00:39:53;;;;;;;468.10;423.33;;;;;;;25.62;49.86;99813.25;351467;28;847;-74
2023/09/02 00:40:05;;;;;;;470.25;425.48;;;;;;;25.53;50.08;99813.22;351414;28;946;-74
2023/09/02 00:40:18;;;;;;;475.80;430.83;;;;;;;25.53;49.97;99810.53;350239;28;1415;-74
2023/09/02 00:40:28;;;;;;;471.83;426.67;;;;;;;25.56;49.75;99813.91;346966;28;1530;-74
2023/09/02 00:40:39;;;;;;;477.13;431.80;;;;;;;25.55;49.81;99812.22;347875;28;1073;-74
2023/09/02 00:40:55;;;;;;;475.52;430.30;;;;;;;25.51;49.88;99809.84;347213;28;1209;-74
2023/09/02 00:41:07;;;;;;;468.90;424.02;;;;;;;25.47;50.00;99813.81;347292;28;822;-74
2023/09/02 00:41:47;;;;;;;467.38;422.63;;;;;;;25.29;50.39;99810.28;345994;28;949;-74
2023/09/02 00:41:57;;;;;;;472.30;427.20;;;;;;;25.30;50.40;99809.28;345949;28;1107;-74
2023/09/02 00:42:09;;;;;;;473.52;428.25;;;;;;;25.32;50.66;99807.31;348659;28;820;-74
2023/09/02 00:42:19;;;;;;;477.15;431.88;;;;;;;25.35;50.48;99815.03;346614;28;1512;-74
2023/09/02 00:42:30;;;;;;;471.47;426.33;;;;;;;25.38;50.32;99809.38;344462;28;1225;-74
2023/09/02 00:42:40;;;;;;;464.80;419.98;;;;;;;25.44;50.36;99813.28;345208;28;1039;-74
2023/09/02 00:42:50;;;;;;;464.17;419.23;;;;;;;25.41;50.24;99814.44;345847;28;1614;-74
2023/09/02 00:43:01;;;;;;;465.23;420.33;;;;;;;25.42;50.34;99809.91;347176;28;1348;-74
2023/09/02 00:43:12;;;;;;;468.02;422.98;;;;;;;25.43;50.41;99806.25;347177;28;979;-74
2023/09/02 00:43:22;;;;;;;463.93;419.13;;;;;;;25.44;50.38;99814.13;348713;28;1292;-74
2023/09/02 00:43:32;;;;;;;466.60;421.58;;;;;;;25.48;50.03;99811.97;345928;28;1228;-74
2023/09/02 00:43:43;;;;;;;465.63;420.73;;;;;;;25.51;50.13;99809.84;345921;28;1284;-74
2023/09/02 00:43:55;;;;;;;473.50;428.40;;;;;;;25.55;50.04;99810.38;341650;28;1179;-74
2023/09/02 00:44:06;;;;;;;466.67;421.73;;;;;;;25.59;49.95;99818.94;346196;28;966;-74
2023/09/02 00:44:16;;;;;;;464.97;420.10;;;;;;;25.60;50.05;99817.94;346029;28;800;-74
2023/09/02 00:44:26;;;;;;;460.67;415.92;;;;;;;25.59;49.87;99810.88;346837;28;1507;-74
2023/09/02 00:44:37;;;;;;;462.93;418.23;;;;;;;25.57;49.62;99816.41;347517;28;1452;-74
2023/09/02 00:44:47;;;;;;;463.17;418.27;;;;;;;25.47;50.15;99816.50;347324;28;1194;-74
2023/09/02 00:44:58;;;;;;;464.75;419.65;;;;;;;25.46;50.09;99817.50;347024;28;1254;-74
2023/09/02 00:45:08;;;;;;;470.13;424.87;;;;;;;25.46;50.25;99812.13;345244;28;1157;-74
2023/09/02 00:45:21;;;;;;;467.63;422.63;;;;;;;25.48;50.15;99809.31;342102;28;1355;-74
2023/09/02 00:45:32;;;;;;;464.42;419.55;;;;;;;25.49;49.87;99816.34;344728;28;885;-74
2023/09/02 00:45:42;;;;;;;463.57;418.60;;;;;;;25.43;50.27;99812.44;346014;28;959;-74
2023/09/02 00:45:52;;;;;;;469.25;424.08;;;;;;;25.39;50.39;99808.38;342423;28;1209;-74
2023/09/02 00:46:03;;;;;;;478.33;432.77;;;;;;;25.40;50.33;99811.91;342938;28;1380;-74
2023/09/02 00:46:13;;;;;;;470.52;425.15;;;;;;;25.43;50.04;99812.44;338095;29;969;-74
2023/09/02 00:46:24;;;;;;;465.63;420.33;;;;;;;25.47;50.26;99821.03;335118;29;1208;-74
2023/09/02 00:46:34;;;;;;;466.83;421.60;;;;;;;25.47;50.39;99808.47;334207;29;1265;-74
2023/09/02 00:46:45;;;;;;;463.08;418.05;;;;;;;25.49;50.26;99811.84;336601;29;1177;-74
2023/09/02 00:46:57;;;;;;;462.98;418.08;;;;;;;25.50;50.02;99810.00;337308;29;1287;-74
2023/09/02 00:47:08;;;;;;;463.52;418.65;;;;;;;25.53;50.08;99812.38;335834;29;1639;-74
2023/09/02 00:47:18;;;;;;;468.10;423.15;;;;;;;25.51;50.18;99811.69;336562;29;1395;-74
2023/09/02 00:47:29;;;;;;;464.77;420.03;;;;;;;25.53;50.19;99818.56;332958;29;1149;-74
2023/09/02 00:47:39;;;;;;;462.60;418.00;;;;;;;25.49;50.03;99811.00;332280;29;1023;-74
2023/09/02 00:47:50;;;;;;;462.23;417.63;;;;;;;25.48;50.33;99812.81;332547;29;1151;-74
2023/09/02 00:48:00;;;;;;;461.77;417.08;;;;;;;25.43;50.27;99816.97;331663;29;1454;-74
2023/09/02 00:48:11;;;;;;;465.43;420.60;;;;;;;25.41;50.38;99816.25;333754;29;963;-74
2023/09/02 00:48:21;;;;;;;464.40;419.75;;;;;;;25.41;50.58;99819.78;333297;29;1704;-74
2023/09/02 00:48:32;;;;;;;464.43;419.77;;;;;;;25.42;50.34;99816.13;335301;29;850;-74
2023/09/02 00:48:42;;;;;;;464.65;420.02;;;;;;;25.44;50.49;99811.44;336020;29;1774;-74
2023/09/02 00:48:53;;;;;;;470.67;425.70;;;;;;;25.48;50.55;99815.50;336023;29;1737;-74
2023/09/02 00:49:04;;;;;;;480.10;434.90;;;;;;;25.48;50.19;99815.50;337378;29;2068;-74
2023/09/02 00:49:14;;;;;;;474.17;429.02;;;;;;;25.48;50.02;99815.50;336719;29;925;-74
2023/09/02 00:49:24;;;;;;;466.53;421.70;;;;;;;25.51;50.08;99812.53;332091;29;2160;-74
2023/09/02 00:49:35;;;;;;;465.73;420.83;;;;;;;25.51;50.16;99811.69;333989;29;1673;-74
2023/09/02 00:49:45;;;;;;;466.97;422.23;;;;;;;25.43;50.43;99816.97;332909;29;796;-74
2023/09/02 00:49:57;;;;;;;469.23;424.43;;;;;;;25.37;50.24;99807.69;333572;29;855;-75
2023/09/02 00:50:08;;;;;;;462.38;417.88;;;;;;;25.28;50.49;99811.28;333212;29;1416;-75
2023/09/02 00:50:18;;;;;;;464.02;419.38;;;;;;;25.23;50.71;99816.25;331538;29;1373;-75
2023/09/02 00:50:28;;;;;;;465.60;420.90;;;;;;;25.26;50.90;99809.75;331634;29;1012;-75
2023/09/02 00:50:39;;;;;;;460.92;416.30;;;;;;;25.29;50.58;99807.59;330890;29;2033;-75
2023/09/02 00:50:49;;;;;;;467.10;422.27;;;;;;;25.31;50.87;99813.66;328892;29;2252;-75
2023/09/02 00:51:00;;;;;;;463.83;419.10;;;;;;;25.34;50.94;99810.66;327776;30;1203;-75
2023/09/02 00:51:10;;;;;;;469.17;424.27;;;;;;;25.28;50.89;99813.97;326946;30;2449;-74
2023/09/02 00:51:20;;;;;;;460.50;415.97;;;;;;;25.19;51.08;99807.66;326697;29;2748;-74
2023/09/02 00:51:31;;;;;;;459.83;415.15;;;;;;;25.18;50.97;99814.00;331509;29;1224;-74
2023/09/02 00:51:41;;;;;;;456.97;412.47;;;;;;;25.21;50.96;99812.88;332364;29;2665;-74
2023/09/02 00:51:51;;;;;;;458.90;414.23;;;;;;;25.22;50.84;99813.72;330953;29;1863;-74
2023/09/02 00:52:02;;;;;;;460.27;415.70;;;;;;;25.22;50.80;99806.53;331604;29;1301;-74
2023/09/02 00:52:12;;;;;;;468.20;423.33;;;;;;;25.22;51.00;99814.56;336080;29;1276;-74
2023/09/02 00:52:23;;;;;;;468.23;423.42;;;;;;;25.23;50.80;99818.06;332461;29;2289;-74
2023/09/02 00:52:34;;;;;;;465.30;420.43;;;;;;;25.26;50.75;99812.41;330764;29;2678;-74